sensor_id;sensor_type;location;lat;lon;timestamp;P1;durP1;ratioP1;P2;durP2;ratioP2
21089;SDS011;10703;51.020;6.128;2022-09-13T00:00:40;6.47;;;2.13;;
21089;SDS011;10703;51.020;6.128;2022-09-13T00:03:08;4.20;;;1.73;;
21089;SDS011;10703;51.020;6.128;2022-09-13T00:05:35;4.97;;;1.97;;
21089;SDS011;10703;51.020;6.128;2022-09-13T00:08:03;2.40;;;1.80;;
21089;SDS011;10703;51.020;6.128;2022-09-13T00:10:30;4.27;;;2.07;;
21089;SDS011;10703;51.020;6.128;2022-09-13T00:12:59;3.40;;;1.50;;
21089;SDS011;10703;51.020;6.128;2022-09-13T00:15:26;3.10;;;1.90;;
21089;SDS011;10703;51.020;6.128;2022-09-13T00:17:53;2.17;;;1.60;;
21089;SDS011;10703;51.020;6.128;2022-09-13T00:20:20;4.00;;;1.50;;
21089;SDS011;10703;51.020;6.128;2022-09-13T00:22:47;1.93;;;1.23;;
21089;SDS011;10703;51.020;6.128;2022-09-13T00:25:13;2.40;;;1.50;;
21089;SDS011;10703;51.020;6.128;2022-09-13T00:27:40;4.20;;;1.53;;
21089;SDS011;10703;51.020;6.128;2022-09-13T00:30:07;3.30;;;1.70;;
21089;SDS011;10703;51.020;6.128;2022-09-13T00:32:34;2.23;;;1.50;;
21089;SDS011;10703;51.020;6.128;2022-09-13T00:35:01;2.23;;;1.20;;
21089;SDS011;10703;51.020;6.128;2022-09-13T00:37:30;2.57;;;1.63;;
21089;SDS011;10703;51.020;6.128;2022-09-13T00:39:58;3.33;;;1.60;;
21089;SDS011;10703;51.020;6.128;2022-09-13T00:42:30;1.90;;;1.40;;
21089;SDS011;10703;51.020;6.128;2022-09-13T00:47:37;1.60;;;1.50;;
21089;SDS011;10703;51.020;6.128;2022-09-13T00:50:10;5.10;;;1.60;;
21089;SDS011;10703;51.020;6.128;2022-09-13T00:53:02;2.60;;;1.57;;
21089;SDS011;10703;51.020;6.128;2022-09-13T00:58:16;3.30;;;1.57;;
21089;SDS011;10703;51.020;6.128;2022-09-13T01:00:47;3.77;;;1.70;;
21089;SDS011;10703;51.020;6.128;2022-09-13T01:03:15;4.03;;;1.87;;
21089;SDS011;10703;51.020;6.128;2022-09-13T01:05:45;5.93;;;1.63;;
21089;SDS011;10703;51.020;6.128;2022-09-13T01:08:20;4.40;;;1.83;;
21089;SDS011;10703;51.020;6.128;2022-09-13T01:10:50;3.30;;;1.60;;
21089;SDS011;10703;51.020;6.128;2022-09-13T01:13:19;3.17;;;1.60;;
21089;SDS011;10703;51.020;6.128;2022-09-13T01:15:48;1.87;;;1.50;;
21089;SDS011;10703;51.020;6.128;2022-09-13T01:18:15;3.47;;;1.70;;
21089;SDS011;10703;51.020;6.128;2022-09-13T01:23:55;5.30;;;1.63;;
21089;SDS011;10703;51.020;6.128;2022-09-13T01:32:30;5.03;;;1.80;;
21089;SDS011;10703;51.020;6.128;2022-09-13T01:35:22;3.43;;;1.63;;
21089;SDS011;10703;51.020;6.128;2022-09-13T01:40:44;2.77;;;1.47;;
21089;SDS011;10703;51.020;6.128;2022-09-13T01:46:16;3.37;;;1.70;;
21089;SDS011;10703;51.020;6.128;2022-09-13T01:51:44;2.80;;;1.93;;
21089;SDS011;10703;51.020;6.128;2022-09-13T01:59:38;3.97;;;1.50;;
21089;SDS011;10703;51.020;6.128;2022-09-13T02:02:20;5.30;;;1.63;;
21089;SDS011;10703;51.020;6.128;2022-09-13T02:05:05;9.23;;;1.40;;
21089;SDS011;10703;51.020;6.128;2022-09-13T02:07:40;5.13;;;1.73;;
21089;SDS011;10703;51.020;6.128;2022-09-13T02:10:09;6.77;;;1.67;;
21089;SDS011;10703;51.020;6.128;2022-09-13T02:12:45;2.90;;;1.50;;
21089;SDS011;10703;51.020;6.128;2022-09-13T02:15:16;6.37;;;1.50;;
21089;SDS011;10703;51.020;6.128;2022-09-13T02:17:49;4.03;;;1.53;;
21089;SDS011;10703;51.020;6.128;2022-09-13T02:20:25;7.07;;;1.60;;
21089;SDS011;10703;51.020;6.128;2022-09-13T02:22:57;3.80;;;2.10;;
21089;SDS011;10703;51.020;6.128;2022-09-13T02:25:27;2.70;;;1.40;;
21089;SDS011;10703;51.020;6.128;2022-09-13T02:27:59;6.10;;;1.37;;
21089;SDS011;10703;51.020;6.128;2022-09-13T02:30:31;4.07;;;1.67;;
21089;SDS011;10703;51.020;6.128;2022-09-13T02:33:03;3.10;;;1.27;;
21089;SDS011;10703;51.020;6.128;2022-09-13T02:35:41;3.93;;;1.60;;
21089;SDS011;10703;51.020;6.128;2022-09-13T02:38:23;2.30;;;1.50;;
21089;SDS011;10703;51.020;6.128;2022-09-13T02:41:17;4.97;;;1.50;;
21089;SDS011;10703;51.020;6.128;2022-09-13T02:43:54;4.00;;;1.17;;
21089;SDS011;10703;51.020;6.128;2022-09-13T02:46:45;2.17;;;1.50;;
21089;SDS011;10703;51.020;6.128;2022-09-13T02:55:24;4.83;;;1.20;;
21089;SDS011;10703;51.020;6.128;2022-09-13T03:00:55;6.33;;;1.53;;
21089;SDS011;10703;51.020;6.128;2022-09-13T03:03:22;3.77;;;1.23;;
21089;SDS011;10703;51.020;6.128;2022-09-13T03:05:49;2.83;;;1.47;;
21089;SDS011;10703;51.020;6.128;2022-09-13T03:08:16;1.57;;;1.27;;
21089;SDS011;10703;51.020;6.128;2022-09-13T03:10:50;3.23;;;1.10;;
21089;SDS011;10703;51.020;6.128;2022-09-13T03:22:06;1.97;;;1.20;;
21089;SDS011;10703;51.020;6.128;2022-09-13T03:24:46;2.07;;;1.10;;
21089;SDS011;10703;51.020;6.128;2022-09-13T03:27:40;3.57;;;1.70;;
21089;SDS011;10703;51.020;6.128;2022-09-13T03:30:11;3.97;;;1.80;;
21089;SDS011;10703;51.020;6.128;2022-09-13T03:32:47;3.30;;;2.00;;
21089;SDS011;10703;51.020;6.128;2022-09-13T03:35:23;3.53;;;1.70;;
21089;SDS011;10703;51.020;6.128;2022-09-13T03:38:02;2.37;;;1.80;;
21089;SDS011;10703;51.020;6.128;2022-09-13T03:43:16;2.00;;;1.70;;
21089;SDS011;10703;51.020;6.128;2022-09-13T03:45:47;2.40;;;1.90;;
21089;SDS011;10703;51.020;6.128;2022-09-13T03:48:17;3.60;;;1.87;;
21089;SDS011;10703;51.020;6.128;2022-09-13T03:50:45;6.13;;;2.00;;
21089;SDS011;10703;51.020;6.128;2022-09-13T03:53:13;5.80;;;1.87;;
21089;SDS011;10703;51.020;6.128;2022-09-13T03:55:44;7.50;;;2.03;;
21089;SDS011;10703;51.020;6.128;2022-09-13T03:58:12;4.13;;;1.90;;
21089;SDS011;10703;51.020;6.128;2022-09-13T04:00:41;5.60;;;2.00;;
21089;SDS011;10703;51.020;6.128;2022-09-13T04:03:08;4.00;;;1.63;;
21089;SDS011;10703;51.020;6.128;2022-09-13T04:05:35;3.27;;;1.67;;
21089;SDS011;10703;51.020;6.128;2022-09-13T04:08:02;3.43;;;1.77;;
21089;SDS011;10703;51.020;6.128;2022-09-13T04:10:34;6.63;;;2.50;;
21089;SDS011;10703;51.020;6.128;2022-09-13T04:13:01;3.53;;;1.57;;
21089;SDS011;10703;51.020;6.128;2022-09-13T04:15:28;5.73;;;1.80;;
21089;SDS011;10703;51.020;6.128;2022-09-13T04:17:56;2.70;;;1.50;;
21089;SDS011;10703;51.020;6.128;2022-09-13T04:20:23;2.93;;;1.60;;
21089;SDS011;10703;51.020;6.128;2022-09-13T04:22:55;4.10;;;1.40;;
21089;SDS011;10703;51.020;6.128;2022-09-13T04:25:22;3.00;;;1.47;;
21089;SDS011;10703;51.020;6.128;2022-09-13T04:27:53;4.47;;;1.80;;
21089;SDS011;10703;51.020;6.128;2022-09-13T04:30:20;2.93;;;1.50;;
21089;SDS011;10703;51.020;6.128;2022-09-13T04:32:48;4.47;;;1.50;;
21089;SDS011;10703;51.020;6.128;2022-09-13T04:35:14;2.70;;;1.60;;
21089;SDS011;10703;51.020;6.128;2022-09-13T04:37:44;2.10;;;1.67;;
21089;SDS011;10703;51.020;6.128;2022-09-13T04:40:11;2.00;;;1.50;;
21089;SDS011;10703;51.020;6.128;2022-09-13T04:42:40;4.13;;;2.07;;
21089;SDS011;10703;51.020;6.128;2022-09-13T04:45:08;1.77;;;1.40;;
21089;SDS011;10703;51.020;6.128;2022-09-13T04:47:35;4.23;;;1.40;;
21089;SDS011;10703;51.020;6.128;2022-09-13T04:50:02;2.60;;;1.43;;
21089;SDS011;10703;51.020;6.128;2022-09-13T04:52:29;3.87;;;1.47;;
21089;SDS011;10703;51.020;6.128;2022-09-13T04:54:56;4.57;;;1.53;;
21089;SDS011;10703;51.020;6.128;2022-09-13T04:57:26;2.40;;;1.37;;
21089;SDS011;10703;51.020;6.128;2022-09-13T04:59:54;2.60;;;1.50;;
21089;SDS011;10703;51.020;6.128;2022-09-13T05:02:20;3.43;;;1.30;;
21089;SDS011;10703;51.020;6.128;2022-09-13T05:04:47;7.63;;;1.50;;
21089;SDS011;10703;51.020;6.128;2022-09-13T05:07:14;2.53;;;1.13;;
21089;SDS011;10703;51.020;6.128;2022-09-13T05:09:40;2.40;;;1.57;;
21089;SDS011;10703;51.020;6.128;2022-09-13T05:12:07;2.20;;;1.20;;
21089;SDS011;10703;51.020;6.128;2022-09-13T05:14:34;2.30;;;1.27;;
21089;SDS011;10703;51.020;6.128;2022-09-13T05:17:00;3.27;;;1.13;;
21089;SDS011;10703;51.020;6.128;2022-09-13T05:19:27;1.33;;;1.20;;
21089;SDS011;10703;51.020;6.128;2022-09-13T05:21:53;2.57;;;1.30;;
21089;SDS011;10703;51.020;6.128;2022-09-13T05:24:20;1.27;;;1.17;;
21089;SDS011;10703;51.020;6.128;2022-09-13T05:26:46;2.80;;;1.27;;
21089;SDS011;10703;51.020;6.128;2022-09-13T05:29:13;1.97;;;1.40;;
21089;SDS011;10703;51.020;6.128;2022-09-13T05:31:40;2.40;;;1.27;;
21089;SDS011;10703;51.020;6.128;2022-09-13T05:34:12;4.50;;;1.30;;
21089;SDS011;10703;51.020;6.128;2022-09-13T05:36:40;3.07;;;1.40;;
21089;SDS011;10703;51.020;6.128;2022-09-13T05:39:11;2.33;;;1.33;;
21089;SDS011;10703;51.020;6.128;2022-09-13T05:42:00;1.60;;;1.37;;
21089;SDS011;10703;51.020;6.128;2022-09-13T05:44:27;4.57;;;1.33;;
21089;SDS011;10703;51.020;6.128;2022-09-13T05:46:54;5.00;;;1.33;;
21089;SDS011;10703;51.020;6.128;2022-09-13T05:49:21;3.43;;;1.70;;
21089;SDS011;10703;51.020;6.128;2022-09-13T05:51:47;5.00;;;1.50;;
21089;SDS011;10703;51.020;6.128;2022-09-13T05:54:14;2.90;;;1.47;;
21089;SDS011;10703;51.020;6.128;2022-09-13T05:56:41;3.43;;;1.47;;
21089;SDS011;10703;51.020;6.128;2022-09-13T05:59:12;6.30;;;1.40;;
21089;SDS011;10703;51.020;6.128;2022-09-13T06:01:42;5.77;;;1.40;;
21089;SDS011;10703;51.020;6.128;2022-09-13T06:04:10;3.47;;;1.50;;
21089;SDS011;10703;51.020;6.128;2022-09-13T06:06:37;3.23;;;1.43;;
21089;SDS011;10703;51.020;6.128;2022-09-13T06:09:04;3.13;;;1.20;;
21089;SDS011;10703;51.020;6.128;2022-09-13T06:11:33;5.80;;;1.40;;
21089;SDS011;10703;51.020;6.128;2022-09-13T06:14:00;5.77;;;1.40;;
21089;SDS011;10703;51.020;6.128;2022-09-13T06:16:26;3.10;;;1.40;;
21089;SDS011;10703;51.020;6.128;2022-09-13T06:18:53;4.83;;;1.30;;
21089;SDS011;10703;51.020;6.128;2022-09-13T06:21:20;5.40;;;1.20;;
21089;SDS011;10703;51.020;6.128;2022-09-13T06:23:53;4.40;;;1.30;;
21089;SDS011;10703;51.020;6.128;2022-09-13T06:26:21;3.70;;;1.53;;
21089;SDS011;10703;51.020;6.128;2022-09-13T06:28:50;4.87;;;1.57;;
21089;SDS011;10703;51.020;6.128;2022-09-13T06:31:19;6.40;;;1.57;;
21089;SDS011;10703;51.020;6.128;2022-09-13T06:33:47;3.07;;;1.23;;
21089;SDS011;10703;51.020;6.128;2022-09-13T06:36:15;8.80;;;1.27;;
21089;SDS011;10703;51.020;6.128;2022-09-13T06:38:43;5.47;;;1.40;;
21089;SDS011;10703;51.020;6.128;2022-09-13T06:41:20;3.20;;;1.20;;
21089;SDS011;10703;51.020;6.128;2022-09-13T06:43:52;7.87;;;1.87;;
21089;SDS011;10703;51.020;6.128;2022-09-13T06:46:20;2.43;;;1.17;;
21089;SDS011;10703;51.020;6.128;2022-09-13T06:48:50;5.43;;;1.40;;
21089;SDS011;10703;51.020;6.128;2022-09-13T06:51:18;1.83;;;1.30;;
21089;SDS011;10703;51.020;6.128;2022-09-13T06:53:47;3.33;;;1.40;;
21089;SDS011;10703;51.020;6.128;2022-09-13T06:56:15;3.73;;;1.53;;
21089;SDS011;10703;51.020;6.128;2022-09-13T06:58:45;5.30;;;1.60;;
21089;SDS011;10703;51.020;6.128;2022-09-13T07:01:17;4.30;;;1.50;;
21089;SDS011;10703;51.020;6.128;2022-09-13T07:03:47;5.40;;;1.17;;
21089;SDS011;10703;51.020;6.128;2022-09-13T07:06:16;6.27;;;1.80;;
21089;SDS011;10703;51.020;6.128;2022-09-13T07:08:48;3.43;;;1.27;;
21089;SDS011;10703;51.020;6.128;2022-09-13T07:11:17;3.30;;;1.30;;
21089;SDS011;10703;51.020;6.128;2022-09-13T07:13:53;2.43;;;1.27;;
21089;SDS011;10703;51.020;6.128;2022-09-13T07:16:22;4.07;;;1.40;;
21089;SDS011;10703;51.020;6.128;2022-09-13T07:18:51;2.60;;;1.00;;
21089;SDS011;10703;51.020;6.128;2022-09-13T07:21:19;2.33;;;1.23;;
21089;SDS011;10703;51.020;6.128;2022-09-13T07:23:47;3.60;;;1.13;;
21089;SDS011;10703;51.020;6.128;2022-09-13T07:26:14;1.60;;;1.00;;
21089;SDS011;10703;51.020;6.128;2022-09-13T07:28:42;5.67;;;1.33;;
21089;SDS011;10703;51.020;6.128;2022-09-13T07:33:42;2.90;;;1.20;;
21089;SDS011;10703;51.020;6.128;2022-09-13T07:36:10;3.13;;;1.27;;
21089;SDS011;10703;51.020;6.128;2022-09-13T07:38:38;2.17;;;1.30;;
21089;SDS011;10703;51.020;6.128;2022-09-13T07:41:09;2.43;;;1.47;;
21089;SDS011;10703;51.020;6.128;2022-09-13T07:43:37;4.17;;;1.20;;
21089;SDS011;10703;51.020;6.128;2022-09-13T07:46:05;3.20;;;1.40;;
21089;SDS011;10703;51.020;6.128;2022-09-13T07:48:32;3.10;;;1.40;;
21089;SDS011;10703;51.020;6.128;2022-09-13T07:53:30;8.13;;;2.07;;
21089;SDS011;10703;51.020;6.128;2022-09-13T07:56:04;5.33;;;1.60;;
21089;SDS011;10703;51.020;6.128;2022-09-13T07:58:36;3.33;;;1.10;;
21089;SDS011;10703;51.020;6.128;2022-09-13T08:01:04;5.07;;;1.77;;
21089;SDS011;10703;51.020;6.128;2022-09-13T08:03:34;2.43;;;1.23;;
21089;SDS011;10703;51.020;6.128;2022-09-13T08:06:01;3.17;;;1.43;;
21089;SDS011;10703;51.020;6.128;2022-09-13T08:08:29;3.97;;;1.20;;
21089;SDS011;10703;51.020;6.128;2022-09-13T08:10:56;3.73;;;1.30;;
21089;SDS011;10703;51.020;6.128;2022-09-13T08:13:24;4.03;;;1.43;;
21089;SDS011;10703;51.020;6.128;2022-09-13T08:15:50;5.60;;;1.40;;
21089;SDS011;10703;51.020;6.128;2022-09-13T08:18:17;2.73;;;1.43;;
21089;SDS011;10703;51.020;6.128;2022-09-13T08:20:45;4.53;;;1.40;;
21089;SDS011;10703;51.020;6.128;2022-09-13T08:23:12;2.70;;;1.45;;
21089;SDS011;10703;51.020;6.128;2022-09-13T08:25:39;2.10;;;1.40;;
21089;SDS011;10703;51.020;6.128;2022-09-13T08:28:06;5.78;;;1.67;;
21089;SDS011;10703;51.020;6.128;2022-09-13T08:30:34;7.40;;;1.40;;
21089;SDS011;10703;51.020;6.128;2022-09-13T08:33:02;3.75;;;1.52;;
21089;SDS011;10703;51.020;6.128;2022-09-13T08:35:30;3.47;;;1.60;;
21089;SDS011;10703;51.020;6.128;2022-09-13T08:37:56;6.05;;;1.63;;
21089;SDS011;10703;51.020;6.128;2022-09-13T08:40:24;4.22;;;1.80;;
21089;SDS011;10703;51.020;6.128;2022-09-13T08:45:32;6.40;;;2.13;;
21089;SDS011;10703;51.020;6.128;2022-09-13T08:48:00;10.55;;;2.30;;
21089;SDS011;10703;51.020;6.128;2022-09-13T08:50:32;4.70;;;1.98;;
21089;SDS011;10703;51.020;6.128;2022-09-13T08:53:03;6.53;;;2.22;;
21089;SDS011;10703;51.020;6.128;2022-09-13T08:56:01;4.68;;;1.80;;
21089;SDS011;10703;51.020;6.128;2022-09-13T09:01:04;2.35;;;1.70;;
21089;SDS011;10703;51.020;6.128;2022-09-13T09:06:11;4.22;;;2.50;;
21089;SDS011;10703;51.020;6.128;2022-09-13T09:08:44;5.20;;;2.45;;
21089;SDS011;10703;51.020;6.128;2022-09-13T09:11:36;7.35;;;2.60;;
21089;SDS011;10703;51.020;6.128;2022-09-13T09:16:51;8.20;;;2.65;;
21089;SDS011;10703;51.020;6.128;2022-09-13T09:19:24;6.88;;;2.78;;
21089;SDS011;10703;51.020;6.128;2022-09-13T09:22:00;7.97;;;2.50;;
21089;SDS011;10703;51.020;6.128;2022-09-13T09:24:36;5.32;;;3.03;;
21089;SDS011;10703;51.020;6.128;2022-09-13T09:27:10;7.55;;;3.45;;
21089;SDS011;10703;51.020;6.128;2022-09-13T09:29:41;5.30;;;2.40;;
21089;SDS011;10703;51.020;6.128;2022-09-13T09:35:15;8.52;;;3.92;;
21089;SDS011;10703;51.020;6.128;2022-09-13T09:38:13;12.05;;;3.70;;
21089;SDS011;10703;51.020;6.128;2022-09-13T09:40:58;7.18;;;3.10;;
21089;SDS011;10703;51.020;6.128;2022-09-13T09:43:32;6.95;;;3.58;;
21089;SDS011;10703;51.020;6.128;2022-09-13T09:46:03;8.40;;;3.28;;
21089;SDS011;10703;51.020;6.128;2022-09-13T09:48:40;7.80;;;3.83;;
21089;SDS011;10703;51.020;6.128;2022-09-13T09:51:12;8.55;;;3.67;;
21089;SDS011;10703;51.020;6.128;2022-09-13T09:53:46;7.18;;;3.97;;
21089;SDS011;10703;51.020;6.128;2022-09-13T09:58:52;8.27;;;3.80;;
21089;SDS011;10703;51.020;6.128;2022-09-13T10:01:24;9.52;;;3.78;;
21089;SDS011;10703;51.020;6.128;2022-09-13T10:06:28;8.98;;;4.32;;
21089;SDS011;10703;51.020;6.128;2022-09-13T10:11:40;11.18;;;4.40;;
21089;SDS011;10703;51.020;6.128;2022-09-13T10:17:04;12.18;;;4.38;;
21089;SDS011;10703;51.020;6.128;2022-09-13T10:19:38;8.63;;;4.07;;
21089;SDS011;10703;51.020;6.128;2022-09-13T10:22:07;9.88;;;4.03;;
21089;SDS011;10703;51.020;6.128;2022-09-13T10:24:37;9.57;;;4.80;;
21089;SDS011;10703;51.020;6.128;2022-09-13T10:27:04;12.85;;;4.78;;
21089;SDS011;10703;51.020;6.128;2022-09-13T10:29:50;11.20;;;3.60;;
21089;SDS011;10703;51.020;6.128;2022-09-13T10:32:20;6.28;;;3.50;;
21089;SDS011;10703;51.020;6.128;2022-09-13T10:34:47;8.60;;;4.20;;
21089;SDS011;10703;51.020;6.128;2022-09-13T10:37:25;8.80;;;3.72;;
21089;SDS011;10703;51.020;6.128;2022-09-13T10:40:00;8.88;;;4.20;;
21089;SDS011;10703;51.020;6.128;2022-09-13T10:42:32;6.65;;;3.40;;
21089;SDS011;10703;51.020;6.128;2022-09-13T10:47:43;7.10;;;4.00;;
21089;SDS011;10703;51.020;6.128;2022-09-13T10:52:50;8.43;;;4.00;;
21089;SDS011;10703;51.020;6.128;2022-09-13T10:57:45;6.60;;;3.30;;
21089;SDS011;10703;51.020;6.128;2022-09-13T11:00:34;8.77;;;4.20;;
21089;SDS011;10703;51.020;6.128;2022-09-13T11:03:21;8.55;;;3.97;;
21089;SDS011;10703;51.020;6.128;2022-09-13T11:30:20;10.80;;;4.05;;
21089;SDS011;10703;51.020;6.128;2022-09-13T11:33:04;6.03;;;3.70;;
21089;SDS011;10703;51.020;6.128;2022-09-13T11:41:49;6.70;;;2.95;;
21089;SDS011;10703;51.020;6.128;2022-09-13T11:47:17;5.43;;;3.10;;
21089;SDS011;10703;51.020;6.128;2022-09-13T11:55:49;3.90;;;2.13;;
21089;SDS011;10703;51.020;6.128;2022-09-13T11:58:25;5.25;;;1.90;;
21089;SDS011;10703;51.020;6.128;2022-09-13T12:01:09;3.25;;;1.85;;
21089;SDS011;10703;51.020;6.128;2022-09-13T12:03:44;5.45;;;2.35;;
21089;SDS011;10703;51.020;6.128;2022-09-13T12:06:18;3.95;;;2.15;;
21089;SDS011;10703;51.020;6.128;2022-09-13T12:08:50;6.70;;;3.55;;
21089;SDS011;10703;51.020;6.128;2022-09-13T12:11:31;7.25;;;2.67;;
21089;SDS011;10703;51.020;6.128;2022-09-13T12:14:11;9.57;;;2.58;;
21089;SDS011;10703;51.020;6.128;2022-09-13T12:16:42;4.50;;;2.20;;
21089;SDS011;10703;51.020;6.128;2022-09-13T12:22:16;6.75;;;3.00;;
21089;SDS011;10703;51.020;6.128;2022-09-13T12:24:46;5.80;;;3.00;;
21089;SDS011;10703;51.020;6.128;2022-09-13T12:32:42;5.07;;;3.30;;
21089;SDS011;10703;51.020;6.128;2022-09-13T13:04:02;7.90;;;2.13;;
21089;SDS011;10703;51.020;6.128;2022-09-13T13:06:58;6.95;;;2.58;;
21089;SDS011;10703;51.020;6.128;2022-09-13T13:09:37;4.15;;;2.20;;
21089;SDS011;10703;51.020;6.128;2022-09-13T13:12:10;5.05;;;1.92;;
21089;SDS011;10703;51.020;6.128;2022-09-13T13:14:51;7.43;;;2.47;;
21089;SDS011;10703;51.020;6.128;2022-09-13T13:17:42;3.60;;;2.20;;
21089;SDS011;10703;51.020;6.128;2022-09-13T13:33:52;8.90;;;3.28;;
21089;SDS011;10703;51.020;6.128;2022-09-13T13:36:24;4.63;;;3.10;;
21089;SDS011;10703;51.020;6.128;2022-09-13T13:38:54;5.05;;;2.78;;
21089;SDS011;10703;51.020;6.128;2022-09-13T13:46:46;9.43;;;3.17;;
21089;SDS011;10703;51.020;6.128;2022-09-13T14:00:03;8.50;;;3.20;;
21089;SDS011;10703;51.020;6.128;2022-09-13T14:11:05;5.32;;;3.63;;
21089;SDS011;10703;51.020;6.128;2022-09-13T14:13:56;6.68;;;3.28;;
21089;SDS011;10703;51.020;6.128;2022-09-13T14:19:58;9.18;;;2.95;;
21089;SDS011;10703;51.020;6.128;2022-09-13T14:22:30;9.98;;;3.20;;
21089;SDS011;10703;51.020;6.128;2022-09-13T14:24:58;8.93;;;3.95;;
21089;SDS011;10703;51.020;6.128;2022-09-13T14:27:44;8.10;;;4.75;;
21089;SDS011;10703;51.020;6.128;2022-09-13T14:30:26;6.35;;;4.32;;
21089;SDS011;10703;51.020;6.128;2022-09-13T14:33:03;9.48;;;5.38;;
21089;SDS011;10703;51.020;6.128;2022-09-13T14:35:35;8.27;;;5.07;;
21089;SDS011;10703;51.020;6.128;2022-09-13T14:38:10;20.52;;;4.75;;
21089;SDS011;10703;51.020;6.128;2022-09-13T14:40:52;7.03;;;3.63;;
21089;SDS011;10703;51.020;6.128;2022-09-13T14:43:25;8.55;;;3.72;;
21089;SDS011;10703;51.020;6.128;2022-09-13T14:45:55;11.15;;;4.00;;
21089;SDS011;10703;51.020;6.128;2022-09-13T14:48:40;13.60;;;4.78;;
21089;SDS011;10703;51.020;6.128;2022-09-13T14:51:13;9.18;;;5.53;;
21089;SDS011;10703;51.020;6.128;2022-09-13T14:53:45;7.65;;;4.28;;
21089;SDS011;10703;51.020;6.128;2022-09-13T14:58:58;13.55;;;4.32;;
21089;SDS011;10703;51.020;6.128;2022-09-13T15:01:27;9.20;;;4.53;;
21089;SDS011;10703;51.020;6.128;2022-09-13T15:03:58;11.93;;;4.40;;
21089;SDS011;10703;51.020;6.128;2022-09-13T15:06:27;10.63;;;4.15;;
21089;SDS011;10703;51.020;6.128;2022-09-13T15:09:00;8.02;;;4.00;;
21089;SDS011;10703;51.020;6.128;2022-09-13T15:14:39;8.18;;;4.60;;
21089;SDS011;10703;51.020;6.128;2022-09-13T15:17:16;12.13;;;5.45;;
21089;SDS011;10703;51.020;6.128;2022-09-13T15:19:46;14.88;;;5.07;;
21089;SDS011;10703;51.020;6.128;2022-09-13T15:24:51;14.10;;;5.40;;
21089;SDS011;10703;51.020;6.128;2022-09-13T15:30:28;8.35;;;4.85;;
21089;SDS011;10703;51.020;6.128;2022-09-13T15:33:04;11.27;;;5.07;;
21089;SDS011;10703;51.020;6.128;2022-09-13T15:35:36;9.13;;;4.65;;
21089;SDS011;10703;51.020;6.128;2022-09-13T15:38:16;10.52;;;4.57;;
21089;SDS011;10703;51.020;6.128;2022-09-13T15:43:39;12.32;;;5.53;;
21089;SDS011;10703;51.020;6.128;2022-09-13T15:46:05;15.50;;;6.97;;
21089;SDS011;10703;51.020;6.128;2022-09-13T15:48:35;11.23;;;7.03;;
21089;SDS011;10703;51.020;6.128;2022-09-13T15:51:12;16.17;;;7.72;;
21089;SDS011;10703;51.020;6.128;2022-09-13T15:53:40;15.10;;;6.95;;
21089;SDS011;10703;51.020;6.128;2022-09-13T15:56:11;14.40;;;7.60;;
21089;SDS011;10703;51.020;6.128;2022-09-13T15:58:43;13.48;;;7.85;;
21089;SDS011;10703;51.020;6.128;2022-09-13T16:01:13;14.38;;;8.02;;
21089;SDS011;10703;51.020;6.128;2022-09-13T16:03:40;12.07;;;8.45;;
21089;SDS011;10703;51.020;6.128;2022-09-13T16:06:07;15.05;;;7.50;;
21089;SDS011;10703;51.020;6.128;2022-09-13T16:08:35;9.68;;;6.82;;
21089;SDS011;10703;51.020;6.128;2022-09-13T16:11:02;10.18;;;6.55;;
21089;SDS011;10703;51.020;6.128;2022-09-13T16:13:30;11.35;;;7.18;;
21089;SDS011;10703;51.020;6.128;2022-09-13T16:15:57;9.93;;;6.90;;
21089;SDS011;10703;51.020;6.128;2022-09-13T16:18:24;10.32;;;6.22;;
21089;SDS011;10703;51.020;6.128;2022-09-13T16:20:51;9.40;;;5.55;;
21089;SDS011;10703;51.020;6.128;2022-09-13T16:23:18;9.80;;;5.60;;
21089;SDS011;10703;51.020;6.128;2022-09-13T16:25:44;9.43;;;5.03;;
21089;SDS011;10703;51.020;6.128;2022-09-13T16:28:16;7.43;;;4.93;;
21089;SDS011;10703;51.020;6.128;2022-09-13T16:30:46;8.27;;;3.90;;
21089;SDS011;10703;51.020;6.128;2022-09-13T16:33:13;9.83;;;4.30;;
21089;SDS011;10703;51.020;6.128;2022-09-13T16:35:40;9.23;;;3.27;;
21089;SDS011;10703;51.020;6.128;2022-09-13T16:38:08;5.93;;;3.37;;
21089;SDS011;10703;51.020;6.128;2022-09-13T16:40:37;7.53;;;2.30;;
21089;SDS011;10703;51.020;6.128;2022-09-13T16:43:05;4.37;;;2.80;;
21089;SDS011;10703;51.020;6.128;2022-09-13T16:45:32;6.33;;;3.30;;
21089;SDS011;10703;51.020;6.128;2022-09-13T16:47:59;4.10;;;2.83;;
21089;SDS011;10703;51.020;6.128;2022-09-13T16:50:25;7.37;;;3.03;;
21089;SDS011;10703;51.020;6.128;2022-09-13T16:52:52;7.43;;;3.07;;
21089;SDS011;10703;51.020;6.128;2022-09-13T16:55:18;10.10;;;3.20;;
21089;SDS011;10703;51.020;6.128;2022-09-13T16:57:45;12.23;;;3.47;;
21089;SDS011;10703;51.020;6.128;2022-09-13T17:00:15;19.30;;;4.57;;
21089;SDS011;10703;51.020;6.128;2022-09-13T17:02:42;9.50;;;4.47;;
21089;SDS011;10703;51.020;6.128;2022-09-13T17:05:09;7.57;;;4.40;;
21089;SDS011;10703;51.020;6.128;2022-09-13T17:07:35;8.67;;;4.47;;
21089;SDS011;10703;51.020;6.128;2022-09-13T17:10:03;14.70;;;5.03;;
21089;SDS011;10703;51.020;6.128;2022-09-13T17:12:31;19.10;;;5.60;;
21089;SDS011;10703;51.020;6.128;2022-09-13T17:14:58;9.00;;;5.70;;
21089;SDS011;10703;51.020;6.128;2022-09-13T17:17:25;13.70;;;6.03;;
21089;SDS011;10703;51.020;6.128;2022-09-13T17:19:52;13.40;;;5.90;;
21089;SDS011;10703;51.020;6.128;2022-09-13T17:22:19;10.00;;;6.00;;
21089;SDS011;10703;51.020;6.128;2022-09-13T17:24:46;14.97;;;7.17;;
21089;SDS011;10703;51.020;6.128;2022-09-13T17:27:13;11.03;;;6.47;;
21089;SDS011;10703;51.020;6.128;2022-09-13T17:29:39;13.53;;;6.17;;
21089;SDS011;10703;51.020;6.128;2022-09-13T17:32:06;16.50;;;6.30;;
21089;SDS011;10703;51.020;6.128;2022-09-13T17:34:32;10.13;;;6.33;;
21089;SDS011;10703;51.020;6.128;2022-09-13T17:36:59;13.20;;;6.63;;
21089;SDS011;10703;51.020;6.128;2022-09-13T17:39:28;16.37;;;6.43;;
21089;SDS011;10703;51.020;6.128;2022-09-13T17:41:55;11.70;;;6.53;;
21089;SDS011;10703;51.020;6.128;2022-09-13T17:44:23;14.73;;;6.60;;
21089;SDS011;10703;51.020;6.128;2022-09-13T17:46:50;8.53;;;5.47;;
21089;SDS011;10703;51.020;6.128;2022-09-13T17:49:16;15.73;;;6.87;;
21089;SDS011;10703;51.020;6.128;2022-09-13T17:51:43;10.70;;;4.50;;
21089;SDS011;10703;51.020;6.128;2022-09-13T17:54:10;10.73;;;5.03;;
21089;SDS011;10703;51.020;6.128;2022-09-13T17:56:38;8.60;;;4.43;;
21089;SDS011;10703;51.020;6.128;2022-09-13T18:01:44;8.33;;;4.57;;
21089;SDS011;10703;51.020;6.128;2022-09-13T18:04:16;7.47;;;3.80;;
21089;SDS011;10703;51.020;6.128;2022-09-13T18:06:44;6.63;;;3.20;;
21089;SDS011;10703;51.020;6.128;2022-09-13T18:09:12;7.47;;;3.10;;
21089;SDS011;10703;51.020;6.128;2022-09-13T18:11:40;9.77;;;3.13;;
21089;SDS011;10703;51.020;6.128;2022-09-13T18:14:11;6.57;;;3.00;;
21089;SDS011;10703;51.020;6.128;2022-09-13T18:16:39;7.13;;;3.80;;
21089;SDS011;10703;51.020;6.128;2022-09-13T18:19:06;8.63;;;3.63;;
21089;SDS011;10703;51.020;6.128;2022-09-13T18:21:32;11.23;;;3.87;;
21089;SDS011;10703;51.020;6.128;2022-09-13T18:23:59;7.83;;;3.67;;
21089;SDS011;10703;51.020;6.128;2022-09-13T18:26:29;13.00;;;4.07;;
21089;SDS011;10703;51.020;6.128;2022-09-13T18:28:58;11.40;;;4.07;;
21089;SDS011;10703;51.020;6.128;2022-09-13T18:31:28;6.70;;;4.13;;
21089;SDS011;10703;51.020;6.128;2022-09-13T18:33:57;11.33;;;5.10;;
21089;SDS011;10703;51.020;6.128;2022-09-13T18:36:26;9.37;;;5.73;;
21089;SDS011;10703;51.020;6.128;2022-09-13T18:38:54;10.93;;;5.83;;
21089;SDS011;10703;51.020;6.128;2022-09-13T18:41:23;11.53;;;6.60;;
21089;SDS011;10703;51.020;6.128;2022-09-13T18:43:55;15.73;;;7.50;;
21089;SDS011;10703;51.020;6.128;2022-09-13T18:46:25;12.57;;;8.60;;
21089;SDS011;10703;51.020;6.128;2022-09-13T18:48:57;14.93;;;9.10;;